createdAt,value
2022-12-09T00:02:05.507Z,20.85
2022-12-09T00:04:33.266Z,22.98
2022-12-09T00:07:00.294Z,25.23
2022-12-09T00:09:26.979Z,22.63
2022-12-09T00:11:53.810Z,21.10
2022-12-09T00:14:20.452Z,33.38
2022-12-09T00:16:47.841Z,35.97
2022-12-09T00:19:14.641Z,36.67
2022-12-09T00:21:42.479Z,24.70
2022-12-09T00:24:14.284Z,19.35
2022-12-09T00:26:41.324Z,25.58
2022-12-09T00:29:08.147Z,19.73
2022-12-09T00:31:37.437Z,22.50
2022-12-09T00:34:07.309Z,25.63
2022-12-09T00:36:35.252Z,19.23
2022-12-09T00:39:02.057Z,22.55
2022-12-09T00:41:29.620Z,18.80
2022-12-09T00:43:57.766Z,19.42
2022-12-09T00:46:24.646Z,15.98
2022-12-09T00:48:51.398Z,15.18
2022-12-09T00:51:21.860Z,15.85
2022-12-09T00:53:53.824Z,18.35
2022-12-09T00:58:48.151Z,19.00
2022-12-09T01:01:15.128Z,23.70
2022-12-09T01:03:41.979Z,21.92
2022-12-09T01:06:11.344Z,16.58
2022-12-09T01:08:39.406Z,16.50
2022-12-09T01:11:16.880Z,18.83
2022-12-09T01:13:43.849Z,14.80
2022-12-09T01:16:25.377Z,13.50
2022-12-09T01:18:53.366Z,26.60
2022-12-09T01:21:20.260Z,24.27
2022-12-09T01:23:47.123Z,16.52
2022-12-09T01:26:13.963Z,15.88
2022-12-09T01:28:41.027Z,14.27
2022-12-09T01:31:14.121Z,17.02
2022-12-09T01:33:42.156Z,16.25
2022-12-09T01:36:14.437Z,16.50
2022-12-09T01:41:08.322Z,19.33
2022-12-09T01:43:35.047Z,15.90
2022-12-09T01:46:03.537Z,17.05
2022-12-09T01:48:33.769Z,16.10
2022-12-09T01:51:20.107Z,16.13
2022-12-09T01:53:49.524Z,16.13
2022-12-09T01:56:32.097Z,16.20
2022-12-09T01:59:09.275Z,24.33
2022-12-09T02:01:37.548Z,18.63
2022-12-09T02:04:05.184Z,18.35
2022-12-09T02:06:32.268Z,13.82
2022-12-09T02:08:59.637Z,16.67
2022-12-09T02:11:40.086Z,16.38
2022-12-09T02:14:23.784Z,12.98
2022-12-09T02:17:11.671Z,17.25
2022-12-09T02:20:12.100Z,15.23
2022-12-09T02:22:51.004Z,14.57
2022-12-09T02:25:32.263Z,17.75
2022-12-09T02:28:20.036Z,19.70
2022-12-09T02:31:04.420Z,15.63
2022-12-09T02:34:03.825Z,17.27
2022-12-09T02:36:40.525Z,18.95
2022-12-09T02:39:08.636Z,18.83
2022-12-09T02:41:37.297Z,16.92
2022-12-09T02:44:13.109Z,15.07
2022-12-09T02:46:42.520Z,12.52
2022-12-09T02:49:10.843Z,13.98
2022-12-09T02:51:42.400Z,14.65
2022-12-09T02:54:14.194Z,16.48
2022-12-09T02:56:45.528Z,14.48
2022-12-09T02:59:12.396Z,14.20
2022-12-09T03:02:10.433Z,13.00
2022-12-09T03:04:40.786Z,13.02
2022-12-09T03:07:39.087Z,11.52
2022-12-09T03:10:24.207Z,15.88
2022-12-09T03:12:59.993Z,14.63
2022-12-09T03:15:29.656Z,14.25
2022-12-09T03:17:58.294Z,13.32
2022-12-09T03:20:29.791Z,18.63
2022-12-09T03:23:00.322Z,13.35
2022-12-09T03:25:39.213Z,14.25
2022-12-09T03:28:34.581Z,18.90
2022-12-09T03:31:07.406Z,12.07
2022-12-09T03:33:34.365Z,13.63
2022-12-09T03:36:05.117Z,14.98
2022-12-09T03:38:36.616Z,15.68
2022-12-09T03:41:28.768Z,17.67
2022-12-09T03:44:39.345Z,16.67
2022-12-09T03:47:07.918Z,14.88
2022-12-09T03:49:35.844Z,18.13
2022-12-09T03:52:21.276Z,13.50
2022-12-09T03:54:53.561Z,12.48
2022-12-09T03:57:21.980Z,11.88
2022-12-09T03:59:58.701Z,13.80
2022-12-09T04:02:26.476Z,10.95
2022-12-09T04:04:53.494Z,11.70
2022-12-09T04:07:20.174Z,11.48
2022-12-09T04:09:47.142Z,12.63
2022-12-09T04:12:14.042Z,14.30
2022-12-09T04:14:40.911Z,16.80
2022-12-09T04:17:07.738Z,15.60
2022-12-09T04:19:34.650Z,13.75
2022-12-09T04:22:01.389Z,12.82
2022-12-09T04:24:28.282Z,13.55
2022-12-09T04:26:55.105Z,12.98
2022-12-09T04:29:21.830Z,11.32
2022-12-09T04:31:48.874Z,10.80
2022-12-09T04:34:15.646Z,18.27
2022-12-09T04:36:42.784Z,13.55
2022-12-09T04:39:09.505Z,12.93
2022-12-09T04:41:39.061Z,12.43
2022-12-09T04:44:06.481Z,13.18
2022-12-09T04:46:33.480Z,11.30
2022-12-09T04:49:00.559Z,14.38
2022-12-09T04:51:27.399Z,15.40
2022-12-09T04:53:54.085Z,14.18
2022-12-09T04:56:21.632Z,14.05
2022-12-09T04:58:50.052Z,11.77
2022-12-09T05:01:22.674Z,13.82
2022-12-09T05:03:54.106Z,12.38
2022-12-09T05:06:21.973Z,15.23
2022-12-09T05:08:49.823Z,12.98
2022-12-09T05:11:18.014Z,13.40
2022-12-09T05:13:44.913Z,14.32
2022-12-09T05:16:16.960Z,12.55
2022-12-09T05:18:44.996Z,11.95
2022-12-09T05:21:15.240Z,13.57
2022-12-09T05:23:42.531Z,12.10
2022-12-09T05:26:17.859Z,11.00
2022-12-09T05:28:45.046Z,10.02
2022-12-09T05:31:15.547Z,11.68
2022-12-09T05:33:43.411Z,10.82
2022-12-09T05:36:11.819Z,12.88
2022-12-09T05:38:39.750Z,14.35
2022-12-09T05:41:07.331Z,12.73
2022-12-09T05:43:35.274Z,12.98
2022-12-09T05:46:03.121Z,14.05
2022-12-09T05:48:30.981Z,11.50
2022-12-09T05:51:07.983Z,14.27
2022-12-09T05:53:35.354Z,11.05
2022-12-09T05:56:03.293Z,9.73
2022-12-09T05:58:30.298Z,9.13
2022-12-09T06:01:04.219Z,11.10
2022-12-09T06:03:31.403Z,9.48
2022-12-09T06:05:58.754Z,10.05
2022-12-09T06:08:25.696Z,12.85
2022-12-09T06:10:53.263Z,17.20
2022-12-09T06:13:20.512Z,14.90
2022-12-09T06:15:47.710Z,16.75
2022-12-09T06:18:14.579Z,11.70
2022-12-09T06:20:42.475Z,11.07
2022-12-09T06:23:09.663Z,17.17
2022-12-09T06:25:36.447Z,16.67
2022-12-09T06:28:03.446Z,16.98
2022-12-09T06:30:30.739Z,18.55
2022-12-09T06:32:57.834Z,13.35
2022-12-09T06:35:24.750Z,13.75
2022-12-09T06:37:53.563Z,12.80
2022-12-09T06:40:22.154Z,17.45
2022-12-09T06:42:50.590Z,14.48
2022-12-09T06:45:21.161Z,13.93
2022-12-09T06:47:48.484Z,13.50
2022-12-09T06:50:16.247Z,15.27
2022-12-09T06:52:43.043Z,16.98
2022-12-09T06:55:11.275Z,15.20
2022-12-09T06:57:38.327Z,14.57
2022-12-09T07:00:05.920Z,12.82
2022-12-09T07:02:36.647Z,12.73
2022-12-09T07:05:04.607Z,13.13
2022-12-09T07:07:31.908Z,14.73
2022-12-09T07:09:58.984Z,17.08
2022-12-09T07:12:26.035Z,28.42
2022-12-09T07:14:52.910Z,17.85
2022-12-09T07:17:21.073Z,27.27
2022-12-09T07:19:48.666Z,29.10
2022-12-09T07:22:16.109Z,24.50
2022-12-09T07:24:43.907Z,19.73
2022-12-09T07:27:19.184Z,18.48
2022-12-09T07:29:47.029Z,18.50
2022-12-09T07:32:14.161Z,16.58
2022-12-09T07:34:41.507Z,16.45
2022-12-09T07:37:08.529Z,14.55
2022-12-09T07:39:35.428Z,22.40
2022-12-09T07:42:02.401Z,27.08
2022-12-09T07:44:29.822Z,29.70
2022-12-09T07:46:57.580Z,21.08
2022-12-09T07:49:25.067Z,30.10
2022-12-09T07:51:52.160Z,18.83
2022-12-09T07:54:20.485Z,14.25
2022-12-09T07:56:47.940Z,19.00
2022-12-09T07:59:15.660Z,16.52
2022-12-09T08:01:43.128Z,30.38
2022-12-09T08:04:10.285Z,36.65
2022-12-09T08:06:37.912Z,30.42
2022-12-09T08:09:08.193Z,31.73
2022-12-09T08:11:35.937Z,26.75
2022-12-09T08:14:10.919Z,23.85
2022-12-09T08:16:39.689Z,22.27
2022-12-09T08:19:07.177Z,18.85
2022-12-09T08:21:34.413Z,17.00
2022-12-09T08:24:03.293Z,25.13
2022-12-09T08:26:33.194Z,20.20
2022-12-09T08:29:00.907Z,16.00
2022-12-09T08:31:28.592Z,16.52
2022-12-09T08:33:56.110Z,16.60
2022-12-09T08:36:26.393Z,15.25
2022-12-09T08:38:53.808Z,26.75
2022-12-09T08:41:22.166Z,16.02
2022-12-09T08:43:49.292Z,18.08
2022-12-09T08:46:16.276Z,16.50
2022-12-09T08:48:43.720Z,17.42
2022-12-09T08:51:12.523Z,17.00
2022-12-09T08:53:40.143Z,19.90
2022-12-09T08:56:09.512Z,15.40
2022-12-09T08:58:36.760Z,17.65
2022-12-09T09:01:04.707Z,19.10
2022-12-09T09:03:32.263Z,20.13
2022-12-09T09:06:10.370Z,28.45
2022-12-09T09:08:39.180Z,18.20
2022-12-09T09:11:18.710Z,21.40
2022-12-09T09:13:47.931Z,19.60
2022-12-09T09:16:19.288Z,19.40
2022-12-09T09:18:46.565Z,24.70
2022-12-09T09:21:16.079Z,24.42
2022-12-09T09:23:44.611Z,21.20
2022-12-09T09:26:26.152Z,19.42
2022-12-09T09:28:55.062Z,25.00
2022-12-09T09:31:24.036Z,24.83
2022-12-09T09:33:51.180Z,26.25
2022-12-09T09:36:22.624Z,24.83
2022-12-09T09:38:52.618Z,24.10
2022-12-09T09:41:31.429Z,23.50
2022-12-09T09:43:59.004Z,33.42
2022-12-09T09:46:40.884Z,25.00
2022-12-09T09:49:14.699Z,27.13
2022-12-09T09:51:42.026Z,27.42
2022-12-09T09:54:13.254Z,25.48
2022-12-09T09:57:00.032Z,23.50
2022-12-09T09:59:44.449Z,24.52
2022-12-09T10:02:11.637Z,23.73
2022-12-09T10:05:00.169Z,25.83
2022-12-09T10:07:43.724Z,23.38
2022-12-09T10:11:08.248Z,19.00
2022-12-09T10:13:49.451Z,17.55
2022-12-09T10:16:43.563Z,21.93
2022-12-09T10:19:30.983Z,20.20
2022-12-09T10:22:05.783Z,26.30
2022-12-09T10:24:40.086Z,25.02
2022-12-09T10:27:29.114Z,27.10
2022-12-09T10:30:02.613Z,28.35
2022-12-09T10:32:32.532Z,27.75
2022-12-09T10:35:00.367Z,26.73
2022-12-09T10:37:35.217Z,25.98
2022-12-09T10:40:08.996Z,35.58
2022-12-09T10:43:08.932Z,36.67
2022-12-09T10:46:16.690Z,30.88
2022-12-09T10:48:37.584Z,41.00
2022-12-09T10:51:10.546Z,42.15
2022-12-09T10:53:43.279Z,40.92
2022-12-09T10:56:17.341Z,37.05
2022-12-09T10:58:44.086Z,34.67
2022-12-09T11:01:16.116Z,33.53
2022-12-09T11:06:26.321Z,34.63
2022-12-09T11:08:59.984Z,35.38
2022-12-09T11:11:42.128Z,34.72
2022-12-09T11:16:56.342Z,37.42
2022-12-09T11:19:36.194Z,31.30
2022-12-09T11:22:22.515Z,36.45
2022-12-09T11:25:13.189Z,29.85
2022-12-09T11:28:00.659Z,27.75
2022-12-09T11:30:57.835Z,35.13
2022-12-09T11:33:54.516Z,37.63
2022-12-09T11:36:37.038Z,36.25
2022-12-09T11:39:20.382Z,31.17
2022-12-09T11:42:17.016Z,30.98
2022-12-09T11:45:01.893Z,32.90
2022-12-09T11:50:31.486Z,33.20
2022-12-09T11:53:33.295Z,35.75
2022-12-09T11:56:07.040Z,42.90
2022-12-09T11:58:50.187Z,35.25
2022-12-09T12:01:46.711Z,30.35
2022-12-09T12:04:23.237Z,31.63
2022-12-09T12:07:03.978Z,26.08
2022-12-09T12:10:02.775Z,33.70
2022-12-09T12:13:01.980Z,39.65
2022-12-09T12:15:43.251Z,39.88
2022-12-09T12:18:15.183Z,40.13
2022-12-09T12:21:16.086Z,40.30
2022-12-09T12:23:51.896Z,32.65
2022-12-09T12:26:38.208Z,30.23
2022-12-09T12:29:11.966Z,26.17
2022-12-09T12:32:08.279Z,35.15
2022-12-09T12:34:40.596Z,30.23
2022-12-09T12:37:37.708Z,25.83
2022-12-09T12:40:10.685Z,27.35
2022-12-09T12:43:27.908Z,22.10
2022-12-09T12:46:19.238Z,23.65
2022-12-09T12:48:58.293Z,32.15
2022-12-09T12:51:36.380Z,27.63
2022-12-09T12:54:18.492Z,26.35
2022-12-09T12:57:10.384Z,19.48
2022-12-09T13:00:16.141Z,20.80
2022-12-09T13:02:51.613Z,20.73
2022-12-09T13:05:32.705Z,20.40
2022-12-09T13:08:05.201Z,17.83
2022-12-09T13:10:39.923Z,19.13
2022-12-09T13:13:23.203Z,15.07
2022-12-09T13:15:52.986Z,16.73
2022-12-09T13:18:26.281Z,16.65
2022-12-09T13:21:04.772Z,15.15
2022-12-09T13:23:57.882Z,16.17
2022-12-09T13:26:55.227Z,14.23
2022-12-09T13:29:21.951Z,13.25
2022-12-09T13:32:16.174Z,13.30
2022-12-09T13:34:51.430Z,13.70
2022-12-09T13:37:54.763Z,14.27
2022-12-09T13:40:21.462Z,10.48
2022-12-09T13:43:02.995Z,13.23
2022-12-09T13:45:37.395Z,12.68
2022-12-09T13:48:29.689Z,11.88
2022-12-09T13:53:46.750Z,10.80
2022-12-09T13:56:16.556Z,10.00
2022-12-09T13:59:03.765Z,10.68
2022-12-09T14:01:52.873Z,11.55
2022-12-09T14:04:27.707Z,12.20
2022-12-09T14:07:32.494Z,10.88
2022-12-09T14:10:00.356Z,11.25
2022-12-09T14:12:26.977Z,10.10
2022-12-09T14:15:25.827Z,12.52
2022-12-09T14:18:00.140Z,9.15
2022-12-09T14:20:33.202Z,12.40
2022-12-09T14:23:11.885Z,11.25
2022-12-09T14:25:38.490Z,12.00
2022-12-09T14:28:20.586Z,9.30
2022-12-09T14:30:49.899Z,8.85
2022-12-09T14:33:38.184Z,9.82
2022-12-09T14:36:29.401Z,11.23
2022-12-09T14:39:29.619Z,9.45
2022-12-09T14:42:09.461Z,10.85
2022-12-09T14:45:13.670Z,9.60
2022-12-09T14:47:44.699Z,8.57
2022-12-09T14:50:21.210Z,9.27
2022-12-09T14:52:57.690Z,11.30
2022-12-09T14:55:26.472Z,8.70
2022-12-09T14:57:55.924Z,8.73
2022-12-09T15:00:36.533Z,10.15
2022-12-09T15:06:04.702Z,13.43
2022-12-09T15:08:37.808Z,10.05
2022-12-09T15:11:26.970Z,9.25
2022-12-09T15:14:16.927Z,6.78
2022-12-09T15:16:47.703Z,8.07
2022-12-09T15:19:57.957Z,8.88
2022-12-09T15:22:21.644Z,12.18
2022-12-09T15:24:50.596Z,8.80
2022-12-09T15:27:20.926Z,8.68
2022-12-09T15:29:48.141Z,7.63
2022-12-09T15:32:29.628Z,10.27
2022-12-09T15:35:14.457Z,9.85
2022-12-09T15:37:41.489Z,7.60
2022-12-09T15:40:12.612Z,8.65
2022-12-09T15:42:44.133Z,8.68
2022-12-09T15:45:14.455Z,7.45
2022-12-09T15:47:47.313Z,7.53
2022-12-09T15:50:21.277Z,11.68
2022-12-09T15:52:57.230Z,8.68
2022-12-09T15:55:45.949Z,8.25
2022-12-09T15:58:14.809Z,8.88
2022-12-09T16:00:46.972Z,8.88
2022-12-09T16:03:18.540Z,10.82
2022-12-09T16:05:51.388Z,10.27
2022-12-09T16:08:18.445Z,9.95
2022-12-09T16:10:49.095Z,9.48
2022-12-09T16:13:18.540Z,10.63
2022-12-09T16:15:47.353Z,8.60
2022-12-09T16:18:26.603Z,10.63
2022-12-09T16:21:07.348Z,12.35
2022-12-09T16:23:34.119Z,9.10
2022-12-09T16:26:07.018Z,8.75
2022-12-09T16:28:34.677Z,8.32
2022-12-09T16:31:15.365Z,10.80
2022-12-09T16:33:47.994Z,11.07
2022-12-09T16:36:27.493Z,10.13
2022-12-09T16:39:23.177Z,10.50
2022-12-09T16:41:52.862Z,9.88
2022-12-09T16:44:22.416Z,10.05
2022-12-09T16:46:49.569Z,10.70
2022-12-09T16:49:16.332Z,10.82
2022-12-09T16:51:43.055Z,9.55
2022-12-09T16:54:20.273Z,11.32
2022-12-09T16:56:47.483Z,9.10
2022-12-09T16:59:14.129Z,9.82
2022-12-09T17:01:42.280Z,9.98
2022-12-09T17:04:21.539Z,9.50
2022-12-09T17:06:48.320Z,11.43
2022-12-09T17:09:15.002Z,9.18
2022-12-09T17:11:48.302Z,11.70
2022-12-09T17:14:15.428Z,9.07
2022-12-09T17:16:42.170Z,9.63
2022-12-09T17:19:08.909Z,15.40
2022-12-09T17:21:35.597Z,12.25
2022-12-09T17:24:02.211Z,16.80
2022-12-09T17:26:28.882Z,12.00
2022-12-09T17:29:01.283Z,12.07
2022-12-09T17:31:29.207Z,11.90
2022-12-09T17:33:57.152Z,13.45
2022-12-09T17:36:24.481Z,19.00
2022-12-09T17:38:51.125Z,12.38
2022-12-09T17:41:20.625Z,19.13
2022-12-09T17:43:47.376Z,12.80
2022-12-09T17:46:14.532Z,11.07
2022-12-09T17:48:41.814Z,13.55
2022-12-09T17:51:11.255Z,13.05
2022-12-09T17:53:40.228Z,11.43
2022-12-09T17:56:13.132Z,12.85
2022-12-09T17:58:40.666Z,13.52
2022-12-09T18:01:19.067Z,12.18
2022-12-09T18:04:07.713Z,11.25
2022-12-09T18:06:34.303Z,12.90
2022-12-09T18:09:03.884Z,12.93
2022-12-09T18:11:30.573Z,11.52
2022-12-09T18:13:57.438Z,11.77
2022-12-09T18:16:24.224Z,12.23
2022-12-09T18:18:50.934Z,11.63
2022-12-09T18:21:24.884Z,11.80
2022-12-09T18:23:54.736Z,12.15
2022-12-09T18:26:24.575Z,11.05
2022-12-09T18:28:56.872Z,9.43
2022-12-09T18:31:27.415Z,11.23
2022-12-09T18:33:54.187Z,10.13
2022-12-09T18:36:25.061Z,9.23
2022-12-09T18:38:52.263Z,11.43
2022-12-09T18:41:24.786Z,10.90
2022-12-09T18:43:53.594Z,8.32
2022-12-09T18:46:25.693Z,10.13
2022-12-09T18:49:01.630Z,12.20
2022-12-09T18:51:29.232Z,9.00
2022-12-09T18:53:58.840Z,9.57
2022-12-09T18:56:26.118Z,10.43
2022-12-09T18:59:09.345Z,11.60
2022-12-09T19:01:39.879Z,10.77
2022-12-09T19:04:11.517Z,10.82
2022-12-09T19:06:40.255Z,15.10
2022-12-09T19:09:10.241Z,17.83
2022-12-09T19:11:38.757Z,19.25
2022-12-09T19:14:07.658Z,14.30
2022-12-09T19:16:34.886Z,12.07
2022-12-09T19:19:09.045Z,14.80
2022-12-09T19:21:36.881Z,10.77
2022-12-09T19:24:03.713Z,9.90
2022-12-09T19:26:32.570Z,13.32
2022-12-09T19:29:05.000Z,11.90
2022-12-09T19:31:43.403Z,13.52
2022-12-09T19:34:17.564Z,13.60
2022-12-09T19:36:45.777Z,11.82
2022-12-09T19:39:13.713Z,13.05
2022-12-09T19:41:41.342Z,11.93
2022-12-09T19:44:09.724Z,11.43
2022-12-09T19:46:38.341Z,11.77
2022-12-09T19:49:05.280Z,18.10
2022-12-09T19:51:32.161Z,18.02
2022-12-09T19:54:00.147Z,18.30
2022-12-09T19:56:27.619Z,15.10
2022-12-09T19:58:54.978Z,10.95
2022-12-09T20:01:27.303Z,19.00
2022-12-09T20:04:39.881Z,33.50
2022-12-09T20:06:56.271Z,24.75
2022-12-09T20:09:24.442Z,19.88
2022-12-09T20:11:52.879Z,13.10
2022-12-09T20:14:19.777Z,13.88
2022-12-09T20:16:46.518Z,14.23
2022-12-09T20:19:13.254Z,19.10
2022-12-09T20:21:40.551Z,15.88
2022-12-09T20:24:08.217Z,14.00
2022-12-09T20:26:37.088Z,14.18
2022-12-09T20:29:07.857Z,15.98
2022-12-09T20:31:37.526Z,14.65
2022-12-09T20:34:07.092Z,12.90
2022-12-09T20:36:36.036Z,14.98
2022-12-09T20:39:12.265Z,14.75
2022-12-09T20:41:39.777Z,14.13
2022-12-09T20:44:06.511Z,15.40
2022-12-09T20:46:33.694Z,16.88
2022-12-09T20:49:04.346Z,19.58
2022-12-09T20:51:35.398Z,16.73
2022-12-09T20:54:04.361Z,21.40
2022-12-09T20:56:31.439Z,22.40
2022-12-09T20:58:58.714Z,26.50
2022-12-09T21:01:31.380Z,25.58
2022-12-09T21:03:59.865Z,17.20
2022-12-09T21:06:29.918Z,16.15
2022-12-09T21:09:00.150Z,15.77
2022-12-09T21:11:27.257Z,13.65
2022-12-09T21:13:58.006Z,16.02
2022-12-09T21:16:27.912Z,15.82
2022-12-09T21:18:57.799Z,17.40
2022-12-09T21:21:26.303Z,17.42
2022-12-09T21:23:54.534Z,18.55
2022-12-09T21:26:23.319Z,22.90
2022-12-09T21:28:51.135Z,23.55
2022-12-09T21:31:23.266Z,25.55
2022-12-09T21:33:51.537Z,22.67
2022-12-09T21:36:27.075Z,27.92
2022-12-09T21:38:54.318Z,27.55
2022-12-09T21:41:24.677Z,40.22
2022-12-09T21:43:52.242Z,51.28
2022-12-09T21:46:21.700Z,28.20
2022-12-09T21:48:52.373Z,30.63
2022-12-09T21:51:20.788Z,19.02
2022-12-09T21:53:49.184Z,20.13
2022-12-09T21:56:22.859Z,22.50
2022-12-09T21:58:52.127Z,20.05
2022-12-09T22:01:23.873Z,20.65
2022-12-09T22:03:50.646Z,21.92
2022-12-09T22:06:18.079Z,20.55
2022-12-09T22:08:45.620Z,20.42
2022-12-09T22:11:18.266Z,20.08
2022-12-09T22:13:45.012Z,22.80
2022-12-09T22:16:23.640Z,21.90
2022-12-09T22:18:53.308Z,20.02
2022-12-09T22:21:25.880Z,21.85
2022-12-09T22:23:54.485Z,22.75
2022-12-09T22:26:21.991Z,25.73
2022-12-09T22:28:49.287Z,23.67
2022-12-09T22:31:21.274Z,20.10
2022-12-09T22:36:15.802Z,21.40
2022-12-09T22:38:43.490Z,21.83
2022-12-09T22:41:15.890Z,27.45
2022-12-09T22:43:43.361Z,27.33
2022-12-09T22:46:13.693Z,23.33
2022-12-09T22:48:41.353Z,25.50
2022-12-09T22:51:12.054Z,25.20
2022-12-09T22:53:39.298Z,22.85
2022-12-09T22:56:07.187Z,20.40
2022-12-09T22:58:34.147Z,19.27
2022-12-09T23:01:00.877Z,20.60
2022-12-09T23:03:28.029Z,20.45
2022-12-09T23:05:54.794Z,25.17
2022-12-09T23:08:22.350Z,25.98
2022-12-09T23:10:49.155Z,22.95
2022-12-09T23:13:15.868Z,22.42
2022-12-09T23:15:42.543Z,47.50
2022-12-09T23:18:09.303Z,43.72
2022-12-09T23:20:35.968Z,26.73
2022-12-09T23:23:03.393Z,25.73
2022-12-09T23:25:30.052Z,28.83
2022-12-09T23:27:56.739Z,26.77
2022-12-09T23:30:23.426Z,22.90
2022-12-09T23:32:50.144Z,23.15
2022-12-09T23:35:16.970Z,20.45
2022-12-09T23:37:43.633Z,21.60
2022-12-09T23:40:11.150Z,20.58
2022-12-09T23:42:37.930Z,22.60
2022-12-09T23:45:05.482Z,21.90
2022-12-09T23:47:32.175Z,23.63
2022-12-09T23:49:58.888Z,19.85
2022-12-09T23:52:25.691Z,23.85
2022-12-09T23:54:52.430Z,25.52
2022-12-09T23:57:19.074Z,28.95
2022-12-09T23:59:45.770Z,25.92
